Time;durP1;ratioP1;P1;durP2;ratioP2;P2;SDS_P1;SDS_P2;PMS_P1;PMS_P2;Temp;Humidity;BMP_temperature;BMP_pressure;BME280_temperature;BME280_humidity;BME280_pressure;Samples;Min_cycle;Max_cycle;Signal;HPM_P1;HPM_P2
2020/12/01 00:01:26;;;;;;;71.87;42.23;;;;;;;-0.31;79.50;101116.68;1719181;81;25832;-78
2020/12/01 00:03:53;;;;;;;77.80;41.77;;;;;;;-0.30;79.57;101124.78;1720466;81;25811;-79
2020/12/01 00:06:19;;;;;;;68.10;39.85;;;;;;;-0.31;79.63;101128.23;1717342;82;26533;-79
2020/12/01 00:08:45;;;;;;;69.72;40.05;;;;;;;-0.29;79.62;101126.89;1716095;82;26561;-78
2020/12/01 00:11:15;;;;;;;70.55;43.02;;;;;;;-0.31;79.73;101119.25;1718219;82;26629;-79
2020/12/01 00:13:41;;;;;;;69.27;39.63;;;;;;;-0.24;79.84;101131.34;1720040;81;26860;-78
2020/12/01 00:16:15;;;;;;;74.62;40.40;;;;;;;-0.25;79.77;101115.55;1718300;82;25712;-79
2020/12/01 00:18:42;;;;;;;75.47;39.25;;;;;;;-0.28;79.90;101123.41;1713652;82;25899;-79
2020/12/01 00:21:17;;;;;;;74.58;41.00;;;;;;;-0.26;80.08;101116.46;1718480;81;25846;-79
2020/12/01 00:23:45;;;;;;;70.83;38.92;;;;;;;-0.18;80.18;101123.33;1719293;82;25852;-78
2020/12/01 00:26:17;;;;;;;73.07;41.80;;;;;;;-0.14;80.18;101121.42;1721623;81;26514;-79
2020/12/01 00:28:46;;;;;;;76.80;43.38;;;;;;;-0.12;80.08;101120.44;1719193;82;25786;-78
2020/12/01 00:31:13;;;;;;;68.37;42.00;;;;;;;-0.07;80.11;101121.05;1720724;81;25804;-79
2020/12/01 00:33:39;;;;;;;80.85;45.03;;;;;;;-0.04;80.13;101120.89;1716227;82;26321;-79
2020/12/01 00:36:08;;;;;;;75.50;42.15;;;;;;;-0.06;80.08;101116.27;1713130;82;25851;-79
2020/12/01 00:38:34;;;;;;;78.92;44.10;;;;;;;-0.02;80.13;101119.53;1712861;82;26223;-79
2020/12/01 00:41:00;;;;;;;73.60;41.77;;;;;;;0.02;80.17;101131.77;1717500;81;25979;-78
2020/12/01 00:43:27;;;;;;;81.97;45.88;;;;;;;0.04;80.17;101137.20;1715872;81;26298;-79
2020/12/01 00:45:54;;;;;;;76.90;43.15;;;;;;;0.04;80.13;101138.48;1718457;81;26240;-78
2020/12/01 00:48:20;;;;;;;82.15;44.63;;;;;;;0.03;80.13;101135.55;1702871;81;26355;-79
2020/12/01 00:50:46;;;;;;;89.95;46.05;;;;;;;0.05;80.16;101137.57;1718174;81;25760;-79
2020/12/01 00:53:13;;;;;;;83.55;45.28;;;;;;;0.05;80.12;101132.89;1716625;82;25989;-79
2020/12/01 00:55:40;;;;;;;81.67;45.75;;;;;;;0.03;80.13;101127.84;1715727;81;25965;-79
2020/12/01 00:58:07;;;;;;;82.82;46.40;;;;;;;0.04;80.18;101128.20;1714043;82;25901;-78
2020/12/01 01:00:34;;;;;;;80.83;45.60;;;;;;;0.02;80.25;101122.31;1716419;81;25784;-78
2020/12/01 01:03:09;;;;;;;83.22;45.55;;;;;;;0.03;80.19;101118.00;1716336;82;26053;-79
2020/12/01 01:05:35;;;;;;;89.77;49.58;;;;;;;0.02;80.28;101120.20;1715845;82;25839;-78
2020/12/01 01:08:02;;;;;;;96.95;51.00;;;;;;;-0.01;80.18;101122.02;1716129;82;25655;-79
2020/12/01 01:10:32;;;;;;;87.42;50.12;;;;;;;-0.06;80.14;101113.70;1714794;81;25682;-79
2020/12/01 01:12:59;;;;;;;92.37;48.65;;;;;;;-0.09;80.04;101112.58;1718630;81;25842;-79
2020/12/01 01:15:29;;;;;;;87.80;48.28;;;;;;;-0.13;80.09;101114.94;1715161;81;25731;-79
2020/12/01 01:17:58;;;;;;;89.92;49.42;;;;;;;-0.13;80.09;101111.55;1716434;82;26466;-79
2020/12/01 01:20:25;;;;;;;92.72;49.42;;;;;;;-0.17;79.98;101116.45;1718213;81;25970;-78
2020/12/01 01:22:52;;;;;;;89.17;48.60;;;;;;;-0.16;80.00;101111.70;1714888;81;26321;-78
2020/12/01 01:25:18;;;;;;;91.63;49.23;;;;;;;-0.19;79.92;101111.41;1718004;81;25948;-77
2020/12/01 01:27:46;;;;;;;84.60;49.13;;;;;;;-0.19;79.91;101105.41;1715340;82;25932;-78
2020/12/01 01:30:17;;;;;;;91.95;48.30;;;;;;;-0.24;79.74;101106.95;1715692;81;25321;-78
2020/12/01 01:32:44;;;;;;;83.75;49.00;;;;;;;-0.26;79.69;101104.44;1719143;81;26368;-78
2020/12/01 01:35:10;;;;;;;89.07;48.85;;;;;;;-0.30;79.67;101109.80;1715954;81;25792;-78
2020/12/01 01:37:36;;;;;;;85.57;48.58;;;;;;;-0.33;79.59;101102.25;1719429;81;25894;-78
2020/12/01 01:40:06;;;;;;;91.37;48.50;;;;;;;-0.37;79.57;101094.34;1707208;82;26352;-78
2020/12/01 01:42:32;;;;;;;84.07;47.17;;;;;;;-0.40;79.50;101097.06;1717208;82;25858;-78
2020/12/01 01:44:59;;;;;;;86.25;49.25;;;;;;;-0.46;79.55;101100.31;1715379;81;26357;-78
2020/12/01 01:47:30;;;;;;;85.55;47.98;;;;;;;-0.46;79.60;101093.06;1713783;82;25785;-78
2020/12/01 01:50:05;;;;;;;83.15;47.17;;;;;;;-0.45;79.69;101097.28;1714818;81;25681;-78
2020/12/01 01:52:36;;;;;;;84.15;45.75;;;;;;;-0.44;79.76;101088.66;1720523;81;25890;-78
2020/12/01 01:55:08;;;;;;;84.15;46.77;;;;;;;-0.47;79.72;101089.64;1721991;82;25540;-78
2020/12/01 01:57:35;;;;;;;93.47;52.95;;;;;;;-0.45;79.83;101085.73;1716967;81;26430;-78
2020/12/01 02:00:06;;;;;;;86.20;48.25;;;;;;;-0.46;79.83;101082.33;1707679;82;25771;-78
2020/12/01 02:02:33;;;;;;;82.57;45.98;;;;;;;-0.49;79.84;101077.81;1719327;82;25653;-78
2020/12/01 02:05:01;;;;;;;87.25;47.00;;;;;;;-0.48;79.90;101076.90;1721357;81;26491;-78
2020/12/01 02:07:27;;;;;;;87.42;50.17;;;;;;;-0.51;79.93;101079.62;1716828;81;25767;-78
2020/12/01 02:09:57;;;;;;;88.80;49.50;;;;;;;-0.51;80.07;101076.59;1721832;81;25730;-78
2020/12/01 02:12:24;;;;;;;94.07;50.60;;;;;;;-0.50;80.17;101079.98;1719067;81;25847;-78
2020/12/01 02:14:56;;;;;;;97.65;51.55;;;;;;;-0.51;80.31;101072.74;1718344;82;25726;-78
2020/12/01 02:17:32;;;;;;;90.17;49.20;;;;;;;-0.45;80.58;101075.45;1706767;82;26330;-78
2020/12/01 02:20:09;;;;;;;88.27;50.05;;;;;;;-0.41;80.66;101073.12;1725665;81;25223;-78
2020/12/01 02:22:36;;;;;;;94.15;49.18;;;;;;;-0.38;80.67;101068.27;1723514;81;26688;-78
2020/12/01 02:25:03;;;;;;;93.33;49.23;;;;;;;-0.39;80.77;101068.72;1723769;81;26705;-79
2020/12/01 02:27:30;;;;;;;86.63;49.10;;;;;;;-0.41;80.82;101061.57;1722926;82;25811;-78
2020/12/01 02:29:59;;;;;;;86.85;48.50;;;;;;;-0.39;80.98;101061.48;1722101;81;26391;-78
2020/12/01 02:32:27;;;;;;;93.60;53.57;;;;;;;-0.33;81.17;101054.73;1726474;81;25886;-78
2020/12/01 02:35:00;;;;;;;89.77;49.65;;;;;;;-0.28;81.17;101051.48;1722641;81;25807;-78
2020/12/01 02:37:28;;;;;;;94.15;50.15;;;;;;;-0.24;81.25;101051.27;1722273;81;25795;-78
2020/12/01 02:39:55;;;;;;;94.30;53.10;;;;;;;-0.21;81.21;101050.28;1726030;81;26222;-79
2020/12/01 02:42:27;;;;;;;92.33;50.30;;;;;;;-0.21;81.26;101056.70;1724064;81;26357;-78
2020/12/01 02:44:57;;;;;;;89.95;50.90;;;;;;;-0.23;81.21;101061.08;1722724;82;25684;-78
2020/12/01 02:47:23;;;;;;;87.50;47.43;;;;;;;-0.20;81.38;101060.92;1724893;82;25762;-78
2020/12/01 02:49:50;;;;;;;88.58;45.80;;;;;;;-0.18;81.24;101055.72;1722617;81;26421;-78
2020/12/01 02:52:16;;;;;;;88.85;48.28;;;;;;;-0.16;81.58;101054.73;1721292;82;25681;-78
2020/12/01 02:54:44;;;;;;;90.35;50.83;;;;;;;-0.12;81.63;101058.78;1719569;82;26466;-78
2020/12/01 02:57:10;;;;;;;87.42;47.88;;;;;;;-0.09;81.56;101046.23;1725803;82;25789;-78
2020/12/01 02:59:36;;;;;;;92.33;49.42;;;;;;;-0.10;81.58;101044.13;1722674;81;25667;-77
2020/12/01 03:02:03;;;;;;;88.37;47.60;;;;;;;-0.10;81.51;101051.84;1723524;82;25923;-78
2020/12/01 03:04:29;;;;;;;78.70;46.37;;;;;;;-0.10;81.46;101046.70;1721932;82;25775;-78
2020/12/01 03:06:55;;;;;;;98.80;50.85;;;;;;;-0.14;81.46;101036.19;1723622;82;25790;-78
2020/12/01 03:09:22;;;;;;;97.12;51.58;;;;;;;-0.14;81.51;101045.64;1724366;81;26708;-78
2020/12/01 03:11:49;;;;;;;92.88;48.33;;;;;;;-0.12;81.67;101045.94;1722999;82;25731;-78
2020/12/01 03:14:17;;;;;;;86.05;49.20;;;;;;;-0.10;81.75;101049.73;1720972;82;25682;-78
2020/12/01 03:16:46;;;;;;;94.92;49.13;;;;;;;-0.16;81.65;101053.91;1714836;82;26573;-78
2020/12/01 03:19:11;;;;;;;97.92;48.87;;;;;;;-0.17;81.80;101056.91;1713712;82;25808;-78
2020/12/01 03:21:38;;;;;;;89.40;48.38;;;;;;;-0.15;81.94;101050.41;1714523;81;25884;-78
2020/12/01 03:24:04;;;;;;;88.40;49.35;;;;;;;-0.18;81.83;101057.00;1713163;82;26241;-78
2020/12/01 03:26:30;;;;;;;90.28;48.15;;;;;;;-0.17;81.93;101053.51;1714565;81;27225;-78
2020/12/01 03:28:57;;;;;;;81.57;44.65;;;;;;;-0.13;81.99;101054.56;1713749;82;25971;-78
2020/12/01 03:31:23;;;;;;;83.25;47.93;;;;;;;-0.10;81.93;101053.58;1715702;81;25842;-78
2020/12/01 03:33:51;;;;;;;90.77;47.33;;;;;;;-0.10;81.84;101047.98;1712301;82;25864;-78
2020/12/01 03:36:19;;;;;;;88.78;46.98;;;;;;;-0.12;81.80;101039.52;1717188;82;26287;-79
2020/12/01 03:38:46;;;;;;;93.42;50.80;;;;;;;-0.18;81.69;101044.16;1715380;81;25790;-79
2020/12/01 03:41:14;;;;;;;86.40;46.02;;;;;;;-0.19;81.87;101045.05;1718202;81;26590;-79
2020/12/01 03:43:41;;;;;;;91.40;47.45;;;;;;;-0.19;81.94;101045.91;1719502;81;25732;-79
2020/12/01 03:46:08;;;;;;;85.60;45.58;;;;;;;-0.18;81.92;101047.55;1715627;81;25756;-79
2020/12/01 03:48:34;;;;;;;84.03;47.25;;;;;;;-0.22;81.83;101046.03;1719633;81;26062;-79
2020/12/01 03:51:01;;;;;;;83.82;46.28;;;;;;;-0.25;81.91;101047.47;1720337;81;25962;-79
2020/12/01 03:53:27;;;;;;;84.15;44.90;;;;;;;-0.27;81.85;101046.75;1715294;82;25780;-79
2020/12/01 03:55:54;;;;;;;78.55;44.40;;;;;;;-0.25;81.97;101046.19;1715966;81;25778;-78
2020/12/01 03:58:20;;;;;;;84.07;47.73;;;;;;;-0.17;82.06;101045.80;1716610;82;25798;-79
2020/12/01 04:00:47;;;;;;;86.12;48.83;;;;;;;-0.14;81.99;101045.64;1719152;81;26409;-79
2020/12/01 04:03:13;;;;;;;88.07;48.55;;;;;;;-0.08;82.09;101044.06;1716990;82;25883;-79
2020/12/01 04:05:39;;;;;;;81.92;46.18;;;;;;;-0.09;81.91;101040.64;1712702;82;25746;-79
2020/12/01 04:08:09;;;;;;;79.42;43.17;;;;;;;-0.07;81.90;101036.26;1714287;82;26437;-79
2020/12/01 04:10:36;;;;;;;81.20;45.80;;;;;;;-0.06;81.78;101043.50;1716890;81;31098;-79
2020/12/01 04:13:03;;;;;;;81.72;45.23;;;;;;;-0.09;81.64;101034.22;1717716;82;26092;-79
2020/12/01 04:15:29;;;;;;;78.75;44.73;;;;;;;-0.12;81.55;101031.81;1706323;81;25756;-80
2020/12/01 04:17:56;;;;;;;78.67;43.95;;;;;;;-0.15;81.47;101034.54;1669722;83;25829;-80
2020/12/01 04:20:22;;;;;;;80.70;45.28;;;;;;;-0.18;81.32;101033.42;1673134;83;26581;-80
2020/12/01 04:22:49;;;;;;;77.92;42.78;;;;;;;-0.18;81.43;101033.87;1670484;83;26330;-79
2020/12/01 04:25:20;;;;;;;76.67;44.35;;;;;;;-0.23;81.16;101028.51;1672722;83;25846;-80
2020/12/01 04:27:47;;;;;;;79.97;43.87;;;;;;;-0.30;81.09;101028.47;1669616;83;25740;-79
2020/12/01 04:30:14;;;;;;;70.72;43.70;;;;;;;-0.33;81.18;101026.48;1674983;83;25498;-79
2020/12/01 04:32:40;;;;;;;83.97;45.03;;;;;;;-0.32;81.21;101028.99;1671285;83;26246;-79
2020/12/01 04:35:07;;;;;;;81.65;44.85;;;;;;;-0.32;81.22;101030.28;1673480;83;25834;-79
2020/12/01 04:37:33;;;;;;;82.25;45.85;;;;;;;-0.35;81.13;101029.16;1670173;83;25820;-79
2020/12/01 04:40:00;;;;;;;74.53;41.42;;;;;;;-0.36;81.10;101033.89;1673510;83;25728;-80
2020/12/01 04:42:28;;;;;;;74.22;44.38;;;;;;;-0.38;81.02;101031.88;1670557;83;25782;-79
2020/12/01 04:45:11;;;;;;;80.80;43.78;;;;;;;-0.44;80.90;101034.73;1672501;83;25840;-80
2020/12/01 04:47:54;;;;;;;75.87;43.40;;;;;;;-0.47;80.93;101033.16;1688979;83;25855;-80
2020/12/01 04:50:28;;;;;;;76.77;46.50;;;;;;;-0.51;80.89;101031.66;1670943;83;25801;-80
2020/12/01 04:53:12;;;;;;;75.80;43.17;;;;;;;-0.54;80.89;101031.00;1668434;83;25866;-80
2020/12/01 04:56:29;;;;;;;81.72;45.48;;;;;;;-0.58;80.84;101027.73;1670797;84;26326;-80
2020/12/01 04:59:07;;;;;;;75.97;45.03;;;;;;;-0.58;81.00;101026.45;1673597;83;27280;-81
2020/12/01 05:02:27;;;;;;;78.85;44.23;;;;;;;-0.57;81.00;101019.60;1669050;84;25421;-80
2020/12/01 05:05:09;;;;;;;;;;;;;;;-0.59;80.94;101013.70;1674627;83;25866;-79
2020/12/01 05:08:02;;;;;;;79.30;41.95;;;;;;;-0.63;80.90;101023.28;1671834;83;26596;-79
2020/12/01 05:10:22;;;;;;;77.87;40.35;;;;;;;-0.65;80.93;101019.98;1673135;82;25898;-80
2020/12/01 05:12:58;;;;;;;80.12;42.17;;;;;;;-0.71;80.75;101024.97;1669438;83;25736;-79
2020/12/01 05:15:32;;;;;;;78.50;41.02;;;;;;;-0.78;80.71;101018.47;1673915;82;25473;-79
2020/12/01 05:18:22;;;;;;;75.42;42.23;;;;;;;-0.82;80.78;101022.11;1726016;81;26063;-79
2020/12/01 05:20:53;;;;;;;78.42;42.08;;;;;;;-0.82;80.91;101023.81;1725612;81;25475;-79
2020/12/01 05:23:31;;;;;;;77.35;44.15;;;;;;;-0.86;80.89;101019.30;1723534;82;25462;-80
2020/12/01 05:26:01;;;;;;;73.97;39.48;;;;;;;-0.84;81.06;101018.78;1705330;82;25850;-80
2020/12/01 05:28:28;;;;;;;69.75;40.23;;;;;;;-0.83;81.00;101017.03;1723675;81;26530;-80
2020/12/01 05:31:05;;;;;;;80.70;43.73;;;;;;;-0.82;81.05;101018.26;1721188;81;25867;-80
2020/12/01 05:33:33;;;;;;;79.62;40.67;;;;;;;-0.82;80.93;101019.97;1717436;82;25971;-81
2020/12/01 05:36:19;;;;;;;75.20;43.65;;;;;;;-0.87;80.90;101024.06;1717264;82;25888;-82
2020/12/01 05:39:15;;;;;;;77.20;42.15;;;;;;;-0.84;80.96;101025.20;1718110;82;25702;-81
2020/12/01 05:41:46;;;;;;;73.12;42.70;;;;;;;-0.83;80.92;101026.02;1722650;81;25723;-79
2020/12/01 05:44:24;;;;;;;;;;;;;;;-0.86;80.84;101030.02;1725252;82;25823;-79
2020/12/01 05:46:59;;;;;;;73.97;41.55;;;;;;;-0.88;80.87;101021.10;1723098;82;25763;-79
2020/12/01 05:49:51;;;;;;;71.57;42.78;;;;;;;-0.94;80.81;101030.39;1713144;81;25901;-80
2020/12/01 05:52:25;;;;;;;70.35;41.75;;;;;;;-0.95;80.95;101028.73;1726205;82;25685;-80
2020/12/01 05:55:25;;;;;;;64.90;37.78;;;;;;;-0.98;80.80;101033.56;1709550;82;25552;-80
2020/12/01 05:58:12;;;;;;;71.17;40.33;;;;;;;-0.99;80.91;101036.19;1724431;81;25958;-80
2020/12/01 06:00:42;;;;;;;72.20;39.00;;;;;;;-1.01;80.91;101033.72;1707131;82;26218;-79
2020/12/01 06:03:32;;;;;;;71.40;41.25;;;;;;;-1.03;80.89;101039.37;1721794;81;25711;-79
2020/12/01 06:06:01;;;;;;;71.05;41.13;;;;;;;-1.07;80.97;101031.88;1724975;81;45601;-80
2020/12/01 06:08:42;;;;;;;70.55;41.37;;;;;;;-1.06;81.00;101033.11;1724564;81;25741;-79
2020/12/01 06:11:33;;;;;;;75.55;42.20;;;;;;;-1.07;80.93;101043.42;1723345;81;25798;-80
2020/12/01 06:14:33;;;;;;;77.53;41.33;;;;;;;-1.09;80.88;101038.39;1724234;81;25807;-79
2020/12/01 06:17:08;;;;;;;71.42;40.30;;;;;;;-1.09;80.89;101048.64;1636789;85;26719;-79
2020/12/01 06:19:57;;;;;;;73.70;40.52;;;;;;;-1.11;81.01;101047.88;1647803;85;26475;-80
2020/12/01 06:22:46;;;;;;;80.92;43.28;;;;;;;-1.07;80.99;101056.25;1645813;85;26523;-80
2020/12/01 06:25:32;;;;;;;75.90;41.28;;;;;;;-1.08;80.91;101059.73;1644880;85;26588;-81
2020/12/01 06:28:22;;;;;;;70.62;41.55;;;;;;;-1.08;81.02;101059.27;1627313;85;26465;-79
2020/12/01 06:31:33;;;;;;;85.55;43.45;;;;;;;-1.10;80.91;101066.66;1646370;85;25790;-80
2020/12/01 06:34:34;;;;;;;73.97;42.27;;;;;;;-1.13;80.88;101064.61;1644467;85;26055;-80
2020/12/01 06:37:34;;;;;;;72.65;43.13;;;;;;;-1.13;80.95;101065.07;1641862;85;25924;-79
2020/12/01 06:40:28;;;;;;;;;;;;;;;-1.16;80.93;101071.17;1647197;85;25747;-79
2020/12/01 06:43:26;;;;;;;74.75;40.20;;;;;;;-1.10;81.07;101069.22;1646040;85;25982;-79
2020/12/01 06:45:57;;;;;;;77.85;42.90;;;;;;;-1.18;80.96;101069.12;1647782;85;25550;-80
2020/12/01 06:48:43;;;;;;;76.95;43.73;;;;;;;-1.14;81.08;101077.06;1626311;85;26763;-79
2020/12/01 06:51:13;;;;;;;74.85;43.73;;;;;;;-1.13;81.11;101073.59;1646962;85;25814;-79
2020/12/01 06:53:41;;;;;;;77.15;43.92;;;;;;;-1.10;81.12;101070.51;1662597;82;25366;-79
2020/12/01 06:56:17;;;;;;;77.70;43.73;;;;;;;-1.08;81.18;101068.70;1671596;84;25757;-79
2020/12/01 06:58:47;;;;;;;76.97;42.10;;;;;;;-1.04;81.21;101071.49;1698966;82;25683;-78
2020/12/01 07:01:24;;;;;;;78.25;46.45;;;;;;;-1.03;81.18;101071.44;1692184;82;31354;-77
2020/12/01 07:04:14;;;;;;;76.00;42.35;;;;;;;-1.02;81.20;101076.11;1700894;82;26607;-79
2020/12/01 07:06:52;;;;;;;77.72;42.55;;;;;;;-1.00;81.17;101073.84;1698744;82;32581;-79
2020/12/01 07:09:27;;;;;;;70.72;42.38;;;;;;;-1.01;81.10;101077.75;1677283;83;25561;-78
2020/12/01 07:12:17;;;;;;;80.28;41.77;;;;;;;-1.01;81.21;101076.05;1702295;82;25877;-80
2020/12/01 07:14:52;;;;;;;77.45;45.52;;;;;;;-1.06;81.08;101075.43;1700942;82;25857;-79
2020/12/01 07:17:39;;;;;;;73.12;41.63;;;;;;;-1.08;81.18;101072.56;1700187;82;25755;-80
2020/12/01 07:20:31;;;;;;;78.20;42.20;;;;;;;-1.05;81.22;101071.13;1703982;82;25944;-81
2020/12/01 07:23:27;;;;;;;94.85;50.55;;;;;;;-1.05;81.30;101080.92;1703064;82;25857;-80
2020/12/01 07:26:18;;;;;;;97.25;54.85;;;;;;;-0.99;81.43;101078.06;1704295;82;25323;-80
2020/12/01 07:28:55;;;;;;;92.47;51.42;;;;;;;-1.05;81.25;101075.80;1701657;82;26357;-80
2020/12/01 07:31:34;;;;;;;162.12;84.45;;;;;;;-1.01;81.40;101075.19;1654117;85;26705;-80
2020/12/01 07:34:17;;;;;;;130.87;75.95;;;;;;;-0.97;81.44;101078.00;1684950;83;25553;-80
2020/12/01 07:36:52;;;;;;;106.22;60.92;;;;;;;-0.94;81.46;101076.11;1681883;83;26811;-80
2020/12/01 07:39:28;;;;;;;83.82;48.25;;;;;;;-0.91;81.47;101075.14;1699283;82;25571;-80
2020/12/01 07:42:04;;;;;;;95.75;45.90;;;;;;;-0.89;81.45;101079.75;1698138;82;26273;-80
2020/12/01 07:44:42;;;;;;;66.60;41.40;;;;;;;-0.86;81.47;101082.16;1703154;82;25785;-81
2020/12/01 07:47:17;;;;;;;78.75;41.65;;;;;;;-0.80;81.53;101086.17;1700483;82;25951;-80
2020/12/01 07:49:46;;;;;;;77.32;39.40;;;;;;;-0.80;81.38;101090.84;1701717;82;25966;-80
2020/12/01 07:52:23;;;;;;;72.90;42.33;;;;;;;-0.78;81.46;101085.19;1701471;82;25761;-80
2020/12/01 07:55:10;;;;;;;70.35;41.85;;;;;;;-0.73;81.47;101082.41;1700939;82;26423;-80
2020/12/01 07:57:37;;;;;;;69.47;40.17;;;;;;;-0.71;81.39;101090.42;1700099;82;26408;-80
2020/12/01 08:00:05;;;;;;;68.45;39.78;;;;;;;-0.68;81.45;101087.70;1703284;82;25700;-80
2020/12/01 08:02:33;;;;;;;66.10;37.78;;;;;;;-0.64;81.45;101101.20;1699761;82;25804;-80
2020/12/01 08:05:05;;;;;;;67.45;37.55;;;;;;;-0.61;81.36;101093.34;1695859;82;25703;-80
2020/12/01 08:07:31;;;;;;;58.78;35.08;;;;;;;-0.59;81.37;101099.70;1701160;82;25743;-80
2020/12/01 08:10:14;;;;;;;65.67;37.23;;;;;;;-0.59;81.25;101097.97;1699230;82;25929;-80
2020/12/01 08:12:44;;;;;;;63.40;38.13;;;;;;;-0.58;81.30;101106.49;1662657;84;26734;-80
2020/12/01 08:15:19;;;;;;;61.92;39.95;;;;;;;-0.55;81.29;101107.62;1700840;82;25784;-80
2020/12/01 08:17:45;;;;;;;63.75;37.85;;;;;;;-0.54;81.33;101108.84;1687715;82;26018;-81
2020/12/01 08:20:19;;;;;;;73.85;39.10;;;;;;;-0.51;81.29;101104.02;1694927;82;25837;-80
2020/12/01 08:23:09;;;;;;;64.80;37.28;;;;;;;-0.51;81.26;101111.25;1694107;82;25774;-80
2020/12/01 08:25:37;;;;;;;65.80;37.45;;;;;;;-0.50;81.24;101110.34;1693868;82;26538;-80
2020/12/01 08:28:17;;;;;;;68.57;40.25;;;;;;;-0.48;81.22;101111.56;1680147;82;26416;-80
2020/12/01 08:31:10;;;;;;;64.32;37.42;;;;;;;-0.48;81.08;101116.23;1695798;82;25884;-79
2020/12/01 08:34:07;;;;;;;62.73;36.05;;;;;;;-0.50;81.13;101115.94;1695224;82;26566;-79
2020/12/01 08:37:06;;;;;;;64.90;37.65;;;;;;;-0.44;81.28;101120.76;1696408;82;26358;-78
2020/12/01 08:39:54;;;;;;;79.62;45.73;;;;;;;-0.39;81.37;101119.26;1695254;82;25744;-79
2020/12/01 08:42:52;;;;;;;75.70;42.48;;;;;;;-0.33;81.33;101122.38;1695710;82;25736;-79
2020/12/01 08:45:36;;;;;;;63.48;38.50;;;;;;;-0.30;81.23;101120.08;1694387;82;25846;-79
2020/12/01 08:48:07;;;;;;;67.12;38.90;;;;;;;-0.28;81.21;101119.55;1695843;82;26342;-78
2020/12/01 08:50:41;;;;;;;57.33;35.20;;;;;;;-0.27;81.06;101115.64;1694063;82;25825;-79
2020/12/01 08:53:19;;;;;;;67.53;36.20;;;;;;;-0.24;80.98;101128.32;1695488;82;25818;-79
2020/12/01 08:55:52;;;;;;;66.82;36.28;;;;;;;-0.25;81.05;101127.95;1694909;82;26440;-79
2020/12/01 08:58:36;;;;;;;59.38;34.75;;;;;;;-0.20;81.02;101124.31;1695214;82;26221;-78
2020/12/01 09:01:08;;;;;;;62.43;35.20;;;;;;;-0.19;81.01;101122.97;1693478;82;25927;-78
2020/12/01 09:03:37;;;;;;;61.42;35.03;;;;;;;-0.17;80.94;101124.98;1693644;82;25857;-78
2020/12/01 09:06:20;;;;;;;54.18;33.28;;;;;;;-0.16;81.00;101124.09;1696187;82;25857;-78
2020/12/01 09:09:03;;;;;;;62.83;34.85;;;;;;;-0.12;80.96;101127.33;1694430;82;25774;-78
2020/12/01 09:22:16;;;;;;;49.40;29.80;;;;;;;0.18;81.03;101123.64;1720170;81;25676;-78
2020/12/01 09:24:42;;;;;;;55.73;31.80;;;;;;;0.24;81.03;101123.31;1719242;81;25682;-78
2020/12/01 09:27:14;;;;;;;51.77;32.17;;;;;;;0.31;80.98;101127.70;1708472;82;25772;-78
2020/12/01 09:29:51;;;;;;;57.78;32.95;;;;;;;0.35;80.88;101117.62;1715935;81;25816;-77
2020/12/01 09:32:24;;;;;;;59.45;31.45;;;;;;;0.36;80.67;101114.98;1716414;81;25906;-78
2020/12/01 09:34:51;;;;;;;58.92;33.13;;;;;;;0.35;80.64;101114.59;1723251;82;26115;-78
2020/12/01 09:37:19;;;;;;;65.85;37.20;;;;;;;0.42;80.76;101117.22;1717563;81;25991;-78
2020/12/01 09:39:46;;;;;;;56.48;34.95;;;;;;;0.49;80.79;101112.60;1717605;81;25799;-79
2020/12/01 09:42:25;;;;;;;57.43;34.05;;;;;;;0.52;80.66;101111.15;1719282;81;25828;-79
2020/12/01 09:47:16;;;;;;;57.17;33.48;;;;;;;0.58;80.40;101116.42;1720447;81;25819;-78
2020/12/01 09:49:38;;;;;;;57.53;35.55;;;;;;;0.60;80.34;101115.86;1721312;81;25693;-79
2020/12/01 09:52:11;;;;;;;52.95;31.95;;;;;;;0.62;80.19;101105.86;1720793;81;25616;-79
2020/12/01 09:54:42;;;;;;;46.75;28.70;;;;;;;0.62;80.07;101109.72;1720711;81;25749;-78
2020/12/01 09:57:16;;;;;;;54.73;31.15;;;;;;;0.62;79.95;101098.61;1716795;81;25850;-78
2020/12/01 09:59:45;;;;;;;55.08;32.45;;;;;;;0.64;80.08;101102.76;1714978;81;25687;-79
2020/12/01 10:07:42;;;;;;;48.98;30.25;;;;;;;0.86;80.12;101106.74;1719756;81;26591;-79
2020/12/01 10:36:03;;;;;;;47.35;28.60;;;;;;;1.32;78.97;101092.13;1716954;81;26622;-77
2020/12/01 10:38:30;;;;;;;48.08;29.23;;;;;;;1.35;78.89;101091.59;1701625;82;25786;-78
2020/12/01 10:40:58;;;;;;;53.00;28.83;;;;;;;1.40;78.87;101091.70;1716766;81;26710;-78
2020/12/01 10:43:24;;;;;;;48.80;30.20;;;;;;;1.47;79.04;101094.73;1716507;81;25656;-78
2020/12/01 10:45:51;;;;;;;46.08;28.20;;;;;;;1.57;79.15;101096.34;1717057;81;25821;-78
2020/12/01 10:48:17;;;;;;;46.75;27.05;;;;;;;1.65;79.01;101098.02;1717152;81;25839;-78
2020/12/01 10:50:43;;;;;;;48.58;29.20;;;;;;;1.72;78.83;101093.70;1717576;81;25738;-77
2020/12/01 10:53:10;;;;;;;45.40;27.87;;;;;;;1.74;78.51;101091.84;1718188;81;25783;-78
2020/12/01 10:55:36;;;;;;;50.85;29.27;;;;;;;1.79;78.56;101096.73;1718041;81;26761;-78
2020/12/01 10:58:02;;;;;;;43.28;26.25;;;;;;;1.85;78.40;101094.25;1718143;81;26573;-78
2020/12/01 11:00:29;;;;;;;42.38;26.30;;;;;;;1.92;78.38;101096.85;1720449;81;25946;-78
2020/12/01 11:02:56;;;;;;;43.65;25.52;;;;;;;1.97;78.11;101098.23;1702658;82;26502;-78
2020/12/01 11:05:29;;;;;;;44.00;25.20;;;;;;;2.02;78.21;101096.68;1715237;81;25885;-77
2020/12/01 11:07:56;;;;;;;47.45;28.42;;;;;;;2.11;78.10;101097.41;1720968;81;25875;-78
2020/12/01 11:10:23;;;;;;;44.18;27.98;;;;;;;2.14;77.71;101091.23;1719063;81;25762;-78
2020/12/01 11:12:49;;;;;;;44.50;27.22;;;;;;;2.20;77.76;101098.13;1716895;81;25631;-78
2020/12/01 11:15:17;;;;;;;45.40;27.25;;;;;;;2.25;77.59;101100.91;1703638;81;26464;-78
2020/12/01 11:17:44;;;;;;;43.95;26.75;;;;;;;2.25;77.28;101100.91;1717151;81;25989;-79
2020/12/01 11:20:15;;;;;;;42.55;26.37;;;;;;;2.30;77.24;101098.41;1717975;81;26370;-79
2020/12/01 11:22:44;;;;;;;48.87;27.95;;;;;;;2.36;76.91;101099.79;1704879;82;25521;-80
2020/12/01 11:25:10;;;;;;;50.23;28.80;;;;;;;2.40;77.11;101097.38;1721883;81;26136;-79
2020/12/01 11:27:36;;;;;;;45.95;25.90;;;;;;;2.51;77.11;101094.14;1719904;81;25789;-78
2020/12/01 11:30:05;;;;;;;43.78;26.23;;;;;;;2.55;76.64;101100.78;1721038;81;25772;-80
2020/12/01 11:32:32;;;;;;;40.58;25.40;;;;;;;2.53;76.42;101094.87;1719767;81;26427;-80
2020/12/01 11:35:00;;;;;;;42.98;25.57;;;;;;;2.59;76.36;101093.20;1720700;81;26274;-80
2020/12/01 11:37:26;;;;;;;38.17;25.02;;;;;;;2.65;76.35;101094.13;1717459;81;26089;-81
2020/12/01 11:39:53;;;;;;;42.23;24.87;;;;;;;2.68;76.10;101100.86;1719563;81;26674;-81
2020/12/01 11:42:19;;;;;;;42.03;25.12;;;;;;;2.71;75.88;101100.19;1717002;81;25856;-80
2020/12/01 11:44:45;;;;;;;44.38;25.32;;;;;;;2.77;76.00;101100.27;1721233;81;25868;-81
2020/12/01 11:47:12;;;;;;;38.63;23.18;;;;;;;2.84;75.99;101104.95;1720547;81;25860;-79
2020/12/01 11:49:38;;;;;;;42.62;24.43;;;;;;;2.87;75.56;101102.17;1719129;81;25810;-79
2020/12/01 11:52:05;;;;;;;37.50;22.37;;;;;;;2.92;75.70;101103.62;1716594;81;26634;-79
2020/12/01 11:54:31;;;;;;;35.90;22.27;;;;;;;2.96;74.70;101111.09;1720878;81;25947;-80
2020/12/01 11:56:57;;;;;;;35.35;23.27;;;;;;;2.94;74.25;101104.36;1703139;82;28286;-80
2020/12/01 11:59:24;;;;;;;38.15;23.85;;;;;;;2.88;74.61;101103.00;1717876;81;26096;-80
2020/12/01 12:01:51;;;;;;;37.48;23.35;;;;;;;2.86;74.48;101102.27;1719141;81;25907;-80
2020/12/01 12:04:17;;;;;;;38.15;23.73;;;;;;;2.84;74.33;101103.66;1718252;81;25878;-80
2020/12/01 12:06:43;;;;;;;42.30;23.30;;;;;;;2.84;74.20;101097.68;1704424;81;25879;-80
2020/12/01 12:09:11;;;;;;;40.15;23.92;;;;;;;2.86;74.36;101097.09;1716590;82;26660;-80
2020/12/01 12:11:38;;;;;;;36.10;22.45;;;;;;;2.73;73.89;101071.69;1720546;81;25995;-80
2020/12/01 12:14:05;;;;;;;38.38;21.42;;;;;;;2.85;74.06;101087.70;1720719;81;25899;-80
2020/12/01 12:16:31;;;;;;;45.20;26.60;;;;;;;2.88;73.79;101095.25;1720269;81;25725;-81
2020/12/01 12:18:58;;;;;;;36.75;22.07;;;;;;;2.87;73.87;101091.03;1721908;81;25978;-80
2020/12/01 12:21:26;;;;;;;34.30;22.02;;;;;;;2.88;73.78;101093.50;1723285;81;25921;-80